createdAt,value
2019-05-22T00:01:48.213Z,98937.88
2019-05-22T00:04:22.060Z,98934.17
2019-05-22T00:06:51.863Z,98930.59
2019-05-22T00:09:27.846Z,98936.03
2019-05-22T00:11:58.332Z,98931.50
2019-05-22T00:14:27.588Z,98928.75
2019-05-22T00:16:56.847Z,98926.59
2019-05-22T00:19:26.778Z,98926.21
2019-05-22T00:21:59.922Z,98917.67
2019-05-22T00:24:29.173Z,98916.13
2019-05-22T00:26:57.802Z,98915.60
2019-05-22T00:29:28.048Z,98925.55
2019-05-22T00:31:56.541Z,98921.17
2019-05-22T00:34:25.564Z,98930.72
2019-05-22T00:36:54.368Z,98927.62
2019-05-22T00:39:23.977Z,98927.19
2019-05-22T00:41:52.148Z,98933.44
2019-05-22T00:44:20.604Z,98933.74
2019-05-22T00:46:51.024Z,98935.41
2019-05-22T00:49:21.526Z,98935.41
2019-05-22T00:52:21.622Z,98935.58
2019-05-22T00:55:05.324Z,98929.31
2019-05-22T00:57:47.404Z,98935.08
2019-05-22T01:00:37.513Z,98939.70
2019-05-22T01:03:06.800Z,98937.02
2019-05-22T01:05:36.755Z,98941.77
2019-05-22T01:08:05.980Z,98942.56
2019-05-22T01:10:34.883Z,98942.56
2019-05-22T01:13:03.901Z,98941.46
2019-05-22T01:15:35.150Z,98939.29
2019-05-22T01:18:07.141Z,98946.50
2019-05-22T01:20:36.952Z,98949.37
2019-05-22T01:23:06.656Z,98936.96
2019-05-22T01:25:36.498Z,98936.96
2019-05-22T01:28:06.634Z,98940.32
2019-05-22T01:30:56.889Z,98938.91
2019-05-22T01:33:30.793Z,98948.94
2019-05-22T01:36:33.591Z,98948.52
2019-05-22T01:39:27.938Z,98940.00
2019-05-22T01:41:58.292Z,98937.23
2019-05-22T01:44:28.118Z,98940.20
2019-05-22T01:47:00.287Z,98943.59
2019-05-22T01:49:30.727Z,98935.89
2019-05-22T01:51:59.182Z,98932.48
2019-05-22T01:54:27.236Z,98936.19
2019-05-22T01:57:03.973Z,98925.61
2019-05-22T01:59:33.427Z,98931.45
2019-05-22T02:02:01.368Z,98934.36
2019-05-22T02:04:30.135Z,98939.09
2019-05-22T02:06:58.004Z,98940.73
2019-05-22T02:09:34.904Z,98944.00
2019-05-22T02:12:25.076Z,98944.08
2019-05-22T02:14:55.202Z,98941.10
2019-05-22T02:17:30.604Z,98947.35
2019-05-22T02:19:59.643Z,98948.38
2019-05-22T02:22:29.005Z,98954.63
2019-05-22T02:24:57.206Z,98949.29
2019-05-22T02:27:25.803Z,98951.36
2019-05-22T02:29:54.930Z,98962.47
2019-05-22T02:32:25.409Z,98956.09
2019-05-22T02:34:55.071Z,98958.34
2019-05-22T02:37:24.254Z,98966.95
2019-05-22T02:39:53.534Z,98961.02
2019-05-22T02:42:28.009Z,98954.03
2019-05-22T02:44:57.282Z,98957.61
2019-05-22T02:47:26.474Z,98962.52
2019-05-22T02:49:57.755Z,98962.65
2019-05-22T02:52:26.550Z,98953.60
2019-05-22T02:54:56.232Z,98961.19
2019-05-22T02:57:27.815Z,98965.06
2019-05-22T02:59:56.725Z,98956.80
2019-05-22T03:02:25.844Z,98971.57
2019-05-22T03:05:03.160Z,98968.77
2019-05-22T03:07:31.852Z,98965.49
2019-05-22T03:10:01.289Z,98966.23
2019-05-22T03:12:31.981Z,98971.44
2019-05-22T03:15:01.289Z,98967.36
2019-05-22T03:17:31.514Z,98966.83
2019-05-22T03:20:03.752Z,98966.09
2019-05-22T03:22:39.567Z,98962.70
2019-05-22T03:25:13.005Z,98968.88
2019-05-22T03:27:43.882Z,98971.84
2019-05-22T03:30:26.844Z,98970.21
2019-05-22T03:32:56.594Z,98967.31
2019-05-22T03:35:27.402Z,98971.62
2019-05-22T03:37:56.944Z,98966.88
2019-05-22T03:40:28.098Z,98966.94
2019-05-22T03:42:56.643Z,98976.36
2019-05-22T03:45:25.317Z,98967.97
2019-05-22T03:47:54.580Z,98967.97
2019-05-22T03:50:23.498Z,98975.62
2019-05-22T03:52:54.625Z,98975.62
2019-05-22T03:55:24.511Z,98969.25
2019-05-22T03:57:52.403Z,98968.77
2019-05-22T04:00:24.268Z,98975.75
2019-05-22T04:02:54.225Z,98979.03
2019-05-22T04:05:23.974Z,98967.56
2019-05-22T04:07:54.174Z,98982.56
2019-05-22T04:10:25.424Z,98974.84
2019-05-22T04:12:55.974Z,98979.77
2019-05-22T04:15:24.620Z,98986.73
2019-05-22T04:17:56.126Z,98984.38
2019-05-22T04:20:25.062Z,98987.78
2019-05-22T04:22:58.045Z,98983.34
2019-05-22T04:25:26.536Z,98983.14
2019-05-22T04:27:54.882Z,98985.52
2019-05-22T04:30:23.151Z,98991.53
2019-05-22T04:32:51.079Z,98986.84
2019-05-22T04:35:20.527Z,98985.81
2019-05-22T04:37:49.477Z,98993.30
2019-05-22T04:40:59.384Z,98988.69
2019-05-22T04:43:34.372Z,98996.27
2019-05-22T04:46:04.895Z,98992.86
2019-05-22T04:48:35.858Z,98998.21
2019-05-22T04:51:25.591Z,99005.30
2019-05-22T04:53:55.069Z,99005.30
2019-05-22T04:56:23.454Z,99007.12
2019-05-22T04:58:52.351Z,98999.42
2019-05-22T05:01:20.832Z,99009.20
2019-05-22T05:03:49.239Z,99008.17
2019-05-22T05:06:18.667Z,99009.50
2019-05-22T05:08:47.422Z,99007.56
2019-05-22T05:11:15.388Z,99024.73
2019-05-22T05:13:43.405Z,99024.80
2019-05-22T05:16:11.314Z,99028.69
2019-05-22T05:18:39.712Z,99032.39
2019-05-22T05:21:07.618Z,99026.06
2019-05-22T05:23:35.570Z,99038.29
2019-05-22T05:26:03.465Z,99040.78
2019-05-22T05:28:33.739Z,99031.13
2019-05-22T05:31:01.707Z,99039.14
2019-05-22T05:33:33.201Z,99039.14
2019-05-22T05:36:01.273Z,99037.13
2019-05-22T05:38:36.663Z,99034.71
2019-05-22T05:41:05.189Z,99042.95
2019-05-22T05:43:33.679Z,99040.91
2019-05-22T05:46:01.695Z,99043.82
2019-05-22T05:48:32.556Z,99043.75
2019-05-22T05:51:39.918Z,99047.27
2019-05-22T05:54:15.167Z,99047.65
2019-05-22T05:56:49.828Z,99045.20
2019-05-22T05:59:19.819Z,99051.09
2019-05-22T06:01:55.390Z,99043.08
2019-05-22T06:04:35.715Z,99040.06
2019-05-22T06:07:17.818Z,99046.26
2019-05-22T06:10:10.131Z,99051.37
2019-05-22T06:12:38.269Z,99058.27
2019-05-22T06:15:07.575Z,99058.35
2019-05-22T06:18:29.071Z,99058.57
2019-05-22T06:21:03.858Z,99063.80
2019-05-22T06:23:55.000Z,99054.16
2019-05-22T06:27:07.703Z,99068.66
2019-05-22T06:29:49.703Z,99061.78
2019-05-22T06:32:59.776Z,99071.52
2019-05-22T06:35:33.412Z,99085.90
2019-05-22T06:38:10.277Z,99081.31
2019-05-22T06:40:38.633Z,99081.31
2019-05-22T06:44:00.857Z,99092.41
2019-05-22T06:46:45.721Z,99085.74
2019-05-22T06:49:35.581Z,99086.27
2019-05-22T06:52:05.204Z,99086.27
2019-05-22T06:54:33.301Z,99089.35
2019-05-22T06:57:01.351Z,99092.22
2019-05-22T06:59:29.536Z,99092.63
2019-05-22T07:02:01.441Z,99090.99
2019-05-22T07:04:29.365Z,99091.27
2019-05-22T07:06:57.622Z,99096.22
2019-05-22T07:09:25.826Z,99102.70
2019-05-22T07:11:54.296Z,99108.42
2019-05-22T07:14:23.897Z,99094.38
2019-05-22T07:16:52.469Z,99094.38
2019-05-22T07:19:21.931Z,99111.94
2019-05-22T07:21:50.745Z,99110.70
2019-05-22T07:24:20.783Z,99108.13
2019-05-22T07:26:49.487Z,99110.17
2019-05-22T07:29:18.476Z,99121.80
2019-05-22T07:31:46.711Z,99115.20
2019-05-22T07:34:14.416Z,99119.63
2019-05-22T07:36:43.687Z,99120.75
2019-05-22T07:39:11.629Z,99123.00
2019-05-22T07:41:39.987Z,99122.70
2019-05-22T07:44:08.028Z,99127.01
2019-05-22T07:46:36.178Z,99129.98
2019-05-22T07:49:05.270Z,99128.53
2019-05-22T07:51:48.472Z,99136.05
2019-05-22T07:54:04.733Z,99132.96
2019-05-22T07:56:36.498Z,99129.77
2019-05-22T07:59:04.556Z,99128.73
2019-05-22T08:01:33.279Z,99132.44
2019-05-22T08:04:02.356Z,99138.16
2019-05-22T08:06:31.134Z,99142.05
2019-05-22T08:08:59.682Z,99147.02
2019-05-22T08:11:27.696Z,99142.70
2019-05-22T08:13:57.076Z,99150.52
2019-05-22T08:16:26.500Z,99144.23
2019-05-22T08:18:54.375Z,99150.07
2019-05-22T08:21:23.531Z,99139.91
2019-05-22T08:23:54.126Z,99139.91
2019-05-22T08:26:23.265Z,99154.08
2019-05-22T08:28:51.543Z,99158.27
2019-05-22T08:31:22.445Z,99161.33
2019-05-22T08:33:50.910Z,99158.77
2019-05-22T08:36:19.192Z,99154.59
2019-05-22T08:38:47.554Z,99144.91
2019-05-22T08:41:19.203Z,99157.39
2019-05-22T08:44:13.587Z,99162.35
2019-05-22T08:46:18.243Z,99150.41
2019-05-22T08:48:48.686Z,99169.61
2019-05-22T08:51:16.770Z,99170.33
2019-05-22T08:53:48.094Z,99170.33
2019-05-22T08:56:15.243Z,99174.45
2019-05-22T08:58:44.479Z,99181.02
2019-05-22T09:01:13.808Z,99181.93
2019-05-22T09:03:42.133Z,99176.23
2019-05-22T09:06:10.455Z,99179.38
2019-05-22T09:08:38.215Z,99189.83
2019-05-22T09:11:06.244Z,99191.59
2019-05-22T09:13:34.207Z,99189.22
2019-05-22T09:16:02.501Z,99194.34
2019-05-22T09:18:31.329Z,99197.84
2019-05-22T09:20:59.818Z,99201.33
2019-05-22T09:23:27.877Z,99205.26
2019-05-22T09:25:58.618Z,99202.66
2019-05-22T09:28:26.582Z,99204.72
2019-05-22T09:30:54.415Z,99203.98
2019-05-22T09:33:22.613Z,99210.75
2019-05-22T09:35:50.581Z,99217.23
2019-05-22T09:38:19.420Z,99215.28
2019-05-22T09:40:48.606Z,99213.11
2019-05-22T09:43:16.837Z,99219.30
2019-05-22T09:45:44.535Z,99223.08
2019-05-22T09:48:12.413Z,99230.69
2019-05-22T09:50:40.416Z,99231.94
2019-05-22T09:53:08.749Z,99230.48
2019-05-22T09:55:37.271Z,99238.88
2019-05-22T09:58:06.384Z,99237.05
2019-05-22T10:00:35.618Z,99234.33
2019-05-22T10:03:05.187Z,99230.20
2019-05-22T10:05:33.240Z,99241.24
2019-05-22T10:08:02.517Z,99246.36
2019-05-22T10:10:30.795Z,99235.95
2019-05-22T10:12:58.535Z,99246.97
2019-05-22T10:15:27.339Z,99252.43
2019-05-22T10:17:55.641Z,99258.81
2019-05-22T10:20:23.472Z,99262.22
2019-05-22T10:22:51.362Z,99262.22
2019-05-22T10:25:19.242Z,99267.33
2019-05-22T10:27:47.394Z,99264.63
2019-05-22T10:30:17.976Z,99273.38
2019-05-22T10:32:45.750Z,99259.70
2019-05-22T10:35:13.596Z,99271.66
2019-05-22T10:37:41.589Z,99267.64
2019-05-22T10:40:13.124Z,99273.12
2019-05-22T10:42:45.034Z,99278.75
2019-05-22T10:45:13.083Z,99280.86
2019-05-22T10:47:41.702Z,99282.06
2019-05-22T10:50:09.999Z,99282.67
2019-05-22T10:52:38.174Z,99283.97
2019-05-22T10:55:07.659Z,99290.66
2019-05-22T10:57:40.455Z,99289.75
2019-05-22T11:00:08.658Z,99293.17
2019-05-22T11:02:36.462Z,99292.17
2019-05-22T11:05:06.869Z,99296.45
2019-05-22T11:07:35.213Z,99300.57
2019-05-22T11:10:04.173Z,99304.28
2019-05-22T11:12:32.055Z,99301.42
2019-05-22T11:15:00.886Z,99303.03
2019-05-22T11:17:28.899Z,99302.09
2019-05-22T11:19:57.748Z,99303.20
2019-05-22T11:22:25.622Z,99305.21
2019-05-22T11:24:53.582Z,99305.05
2019-05-22T11:27:22.701Z,99309.97
2019-05-22T11:29:51.268Z,99311.88
2019-05-22T11:32:20.550Z,99309.98
2019-05-22T11:34:48.425Z,99314.37
2019-05-22T11:37:16.435Z,99313.22
2019-05-22T11:39:45.232Z,99311.27
2019-05-22T11:42:13.519Z,99306.96
2019-05-22T11:44:41.670Z,99309.44
2019-05-22T11:47:10.633Z,99306.45
2019-05-22T11:49:38.979Z,99313.45
2019-05-22T11:52:06.894Z,99313.53
2019-05-22T11:54:34.897Z,99307.85
2019-05-22T11:57:03.108Z,99311.36
2019-05-22T11:59:32.095Z,99313.69
2019-05-22T12:02:00.097Z,99316.09
2019-05-22T12:04:45.749Z,99314.26
2019-05-22T12:06:58.969Z,99321.84
2019-05-22T12:09:27.405Z,99309.73
2019-05-22T12:11:55.366Z,99314.41
2019-05-22T12:14:23.577Z,99310.53
2019-05-22T12:16:53.280Z,99314.71
2019-05-22T12:19:22.415Z,99310.23
2019-05-22T12:21:50.309Z,99305.89
2019-05-22T12:24:26.961Z,99313.03
2019-05-22T12:26:47.979Z,99325.60
2019-05-22T12:29:17.432Z,99330.69
2019-05-22T12:31:46.788Z,99346.44
2019-05-22T12:34:14.593Z,99349.06
2019-05-22T12:36:43.335Z,99350.27
2019-05-22T12:39:11.821Z,99350.98
2019-05-22T12:41:40.500Z,99349.24
2019-05-22T12:44:08.317Z,99346.95
2019-05-22T12:46:37.004Z,99353.69
2019-05-22T12:49:08.842Z,99355.79
2019-05-22T12:51:36.659Z,99366.50
2019-05-22T12:54:04.984Z,99362.30
2019-05-22T12:56:33.570Z,99368.87
2019-05-22T12:59:03.649Z,99376.35
2019-05-22T13:01:33.494Z,99380.29
2019-05-22T13:04:03.528Z,99375.30
2019-05-22T13:06:31.558Z,99381.88
2019-05-22T13:09:00.800Z,99379.62
2019-05-22T13:11:28.990Z,99382.80
2019-05-22T13:13:56.991Z,99388.45
2019-05-22T13:16:26.304Z,99388.64
2019-05-22T13:18:55.462Z,99386.69
2019-05-22T13:21:30.387Z,99389.64
2019-05-22T13:24:01.637Z,99373.41
2019-05-22T13:26:31.217Z,99383.47
2019-05-22T13:28:59.249Z,99384.95
2019-05-22T13:31:27.327Z,99381.16
2019-05-22T13:33:56.366Z,99384.23
2019-05-22T13:36:24.606Z,99382.18
2019-05-22T13:38:53.167Z,99399.14
2019-05-22T13:41:21.561Z,99395.77
2019-05-22T13:43:50.003Z,99400.38
2019-05-22T13:46:18.320Z,99400.67
2019-05-22T13:48:46.277Z,99405.02
2019-05-22T13:51:14.654Z,99405.43
2019-05-22T13:53:43.030Z,99416.17
2019-05-22T13:56:11.618Z,99407.53
2019-05-22T13:58:40.389Z,99407.13
2019-05-22T14:01:08.909Z,99416.27
2019-05-22T14:03:37.539Z,99419.11
2019-05-22T14:06:05.521Z,99418.56
2019-05-22T14:08:33.750Z,99422.39
2019-05-22T14:11:02.481Z,99429.24
2019-05-22T14:13:31.259Z,99433.88
2019-05-22T14:15:59.261Z,99431.43
2019-05-22T14:18:27.526Z,99439.92
2019-05-22T14:20:55.630Z,99447.55
2019-05-22T14:23:24.203Z,99449.68
2019-05-22T14:25:52.547Z,99442.33
2019-05-22T14:28:22.022Z,99446.23
2019-05-22T14:30:51.714Z,99440.90
2019-05-22T14:33:19.667Z,99452.22
2019-05-22T14:35:50.494Z,99455.80
2019-05-22T14:38:19.080Z,99449.00
2019-05-22T14:40:47.050Z,99458.10
2019-05-22T14:43:15.166Z,99464.04
2019-05-22T14:45:43.087Z,99442.13
2019-05-22T14:48:12.162Z,99454.23
2019-05-22T14:50:40.255Z,99448.98
2019-05-22T14:53:09.836Z,99448.98
2019-05-22T14:55:38.364Z,99443.41
2019-05-22T14:58:07.561Z,99460.00
2019-05-22T15:00:36.162Z,99455.78
2019-05-22T15:03:08.099Z,99454.28
2019-05-22T15:05:36.294Z,99455.30
2019-05-22T15:08:06.273Z,99447.94
2019-05-22T15:10:35.967Z,99449.41
2019-05-22T15:13:05.154Z,99461.78
2019-05-22T15:15:33.679Z,99466.16
2019-05-22T15:18:01.498Z,99453.61
2019-05-22T15:20:41.642Z,99453.61
2019-05-22T15:23:09.905Z,99458.55
2019-05-22T15:25:37.838Z,99455.14
2019-05-22T15:28:06.726Z,99452.22
2019-05-22T15:30:35.008Z,99456.74
2019-05-22T15:33:03.772Z,99455.27
2019-05-22T15:35:32.719Z,99464.14
2019-05-22T15:38:02.680Z,99455.09
2019-05-22T15:40:30.928Z,99453.77
2019-05-22T15:42:59.544Z,99462.56
2019-05-22T15:45:28.792Z,99464.09
2019-05-22T15:48:01.761Z,99468.98
2019-05-22T15:50:33.448Z,99476.09
2019-05-22T15:53:09.589Z,99481.58
2019-05-22T15:55:38.648Z,99491.48
2019-05-22T15:58:07.455Z,99493.84
2019-05-22T16:00:37.090Z,99495.98
2019-05-22T16:03:10.252Z,99492.77
2019-05-22T16:05:39.859Z,99493.62
2019-05-22T16:08:09.161Z,99494.91
2019-05-22T16:10:38.743Z,99478.61
2019-05-22T16:13:08.585Z,99483.88
2019-05-22T16:15:38.289Z,99484.08
2019-05-22T16:18:11.816Z,99487.92
2019-05-22T16:20:38.033Z,99503.53
2019-05-22T16:23:07.931Z,99511.20
2019-05-22T16:25:36.896Z,99520.70
2019-05-22T16:28:04.801Z,99526.78
2019-05-22T16:30:33.458Z,99534.02
2019-05-22T16:33:03.085Z,99554.96
2019-05-22T16:35:31.158Z,99558.36
2019-05-22T16:37:59.595Z,99561.07
2019-05-22T16:40:29.387Z,99552.24
2019-05-22T16:42:59.434Z,99560.17
2019-05-22T16:45:29.609Z,99559.70
2019-05-22T16:48:00.151Z,99571.73
2019-05-22T16:50:28.826Z,99575.55
2019-05-22T16:52:59.324Z,99581.20
2019-05-22T16:55:29.673Z,99587.22
2019-05-22T16:57:57.700Z,99578.32
2019-05-22T17:00:27.787Z,99586.58
2019-05-22T17:02:56.224Z,99590.09
2019-05-22T17:05:24.490Z,99592.76
2019-05-22T17:07:52.908Z,99580.36
2019-05-22T17:10:23.759Z,99594.29
2019-05-22T17:12:52.657Z,99603.61
2019-05-22T17:15:21.379Z,99603.61
2019-05-22T17:17:49.566Z,99597.64
2019-05-22T17:20:20.355Z,99607.77
2019-05-22T17:22:48.266Z,99612.94
2019-05-22T17:25:19.135Z,99605.32
2019-05-22T17:27:48.779Z,99611.45
2019-05-22T17:30:20.663Z,99594.72
2019-05-22T17:32:48.206Z,99594.72
2019-05-22T17:35:17.958Z,99610.77
2019-05-22T17:37:46.647Z,99621.41
2019-05-22T17:40:16.716Z,99622.34
2019-05-22T17:42:47.512Z,99624.73
2019-05-22T17:45:19.683Z,99624.73
2019-05-22T17:47:47.820Z,99641.98
2019-05-22T17:50:27.016Z,99640.28
2019-05-22T17:52:48.511Z,99646.62
2019-05-22T17:55:18.693Z,99654.48
2019-05-22T17:57:46.662Z,99651.42
2019-05-22T18:00:37.306Z,99632.64
2019-05-22T18:03:06.009Z,99636.78
2019-05-22T18:05:36.062Z,99646.30
2019-05-22T18:08:04.979Z,99658.32
2019-05-22T18:10:39.670Z,99664.48
2019-05-22T18:13:04.845Z,99664.52
2019-05-22T18:15:32.999Z,99665.20
2019-05-22T18:18:01.499Z,99671.70
2019-05-22T18:20:41.864Z,99674.91
2019-05-22T18:22:59.586Z,99684.31
2019-05-22T18:25:27.477Z,99681.85
2019-05-22T18:27:55.794Z,99675.69
2019-05-22T18:30:25.425Z,99670.20
2019-05-22T18:32:53.517Z,99683.34
2019-05-22T18:35:21.472Z,99671.60
2019-05-22T18:37:49.324Z,99694.67
2019-05-22T18:40:17.247Z,99705.17
2019-05-22T18:42:45.594Z,99711.86
2019-05-22T18:45:13.694Z,99734.47
2019-05-22T18:47:42.096Z,99750.07
2019-05-22T18:50:10.556Z,99746.56
2019-05-22T18:52:41.641Z,99748.09
2019-05-22T18:55:09.767Z,99743.09
2019-05-22T18:57:38.667Z,99745.11
2019-05-22T19:00:07.113Z,99735.83
2019-05-22T19:02:35.199Z,99735.83
2019-05-22T19:05:03.560Z,99730.52
2019-05-22T19:07:31.681Z,99730.52
2019-05-22T19:09:59.583Z,99720.55
2019-05-22T19:12:27.766Z,99715.30
2019-05-22T19:14:55.477Z,99721.31
2019-05-22T19:17:23.645Z,99721.97
2019-05-22T19:19:51.620Z,99734.25
2019-05-22T19:22:21.582Z,99732.80
2019-05-22T19:24:49.423Z,99729.02
2019-05-22T19:27:17.479Z,99722.02
2019-05-22T19:29:45.210Z,99737.32
2019-05-22T19:32:13.196Z,99736.97
2019-05-22T19:34:41.100Z,99725.69
2019-05-22T19:37:11.091Z,99725.69
2019-05-22T19:39:40.144Z,99728.05
2019-05-22T19:42:10.052Z,99726.09
2019-05-22T19:44:38.304Z,99749.84
2019-05-22T19:47:08.916Z,99749.84
2019-05-22T19:49:36.959Z,99742.55
2019-05-22T19:52:05.869Z,99754.67
2019-05-22T19:54:34.886Z,99754.67
2019-05-22T19:57:02.776Z,99770.79
2019-05-22T19:59:31.108Z,99759.61
2019-05-22T20:01:59.828Z,99759.61
2019-05-22T20:04:28.297Z,99756.82
2019-05-22T20:06:58.612Z,99759.83
2019-05-22T20:09:26.537Z,99768.62
2019-05-22T20:11:54.411Z,99768.62
2019-05-22T20:14:22.419Z,99756.67
2019-05-22T20:16:50.628Z,99761.53
2019-05-22T20:19:19.040Z,99765.84
2019-05-22T20:21:47.428Z,99765.84
2019-05-22T20:24:16.001Z,99758.22
2019-05-22T20:26:44.086Z,99763.36
2019-05-22T20:29:14.013Z,99763.36
2019-05-22T20:31:42.048Z,99772.34
2019-05-22T20:34:10.009Z,99772.34
2019-05-22T20:36:39.243Z,99775.67
2019-05-22T20:39:08.853Z,99775.67
2019-05-22T20:41:37.716Z,99768.67
2019-05-22T20:44:07.507Z,99773.34
2019-05-22T20:46:37.971Z,99773.34
2019-05-22T20:49:08.478Z,99766.69
2019-05-22T20:51:36.959Z,99767.67
2019-05-22T20:54:05.813Z,99759.38
2019-05-22T20:56:34.758Z,99757.89
2019-05-22T20:59:03.014Z,99769.68
2019-05-22T21:01:33.048Z,99769.68
2019-05-22T21:04:03.818Z,99763.88
2019-05-22T21:06:36.938Z,99772.36
2019-05-22T21:09:06.271Z,99765.73
2019-05-22T21:11:34.929Z,99765.73
2019-05-22T21:14:04.118Z,99771.39
2019-05-22T21:16:33.677Z,99771.39
2019-05-22T21:19:01.765Z,99779.55
2019-05-22T21:21:29.700Z,99776.88
2019-05-22T21:24:10.071Z,99776.88
2019-05-22T21:26:28.221Z,99774.06
2019-05-22T21:28:57.098Z,99778.22
2019-05-22T21:31:25.028Z,99780.05
2019-05-22T21:33:53.354Z,99790.99
2019-05-22T21:36:22.592Z,99790.99
2019-05-22T21:38:50.873Z,99779.37
2019-05-22T21:41:20.686Z,99783.23
2019-05-22T21:43:48.741Z,99783.23
2019-05-22T21:46:16.947Z,99800.64
2019-05-22T21:48:46.864Z,99804.79
2019-05-22T21:51:15.204Z,99795.02
2019-05-22T21:53:43.921Z,99807.62
2019-05-22T21:56:11.808Z,99807.62
2019-05-22T21:58:40.415Z,99798.98
2019-05-22T22:01:23.643Z,99804.30
2019-05-22T22:03:58.236Z,99804.30
2019-05-22T22:06:27.795Z,99817.09
2019-05-22T22:08:56.485Z,99817.09
2019-05-22T22:11:27.193Z,99801.33
2019-05-22T22:13:55.424Z,99810.14
2019-05-22T22:16:24.542Z,99802.84
2019-05-22T22:18:54.591Z,99802.84
2019-05-22T22:21:22.490Z,99809.80
2019-05-22T22:23:51.715Z,99810.31
2019-05-22T22:26:25.747Z,99810.31
2019-05-22T22:28:50.218Z,99808.33
2019-05-22T22:31:21.371Z,99811.47
2019-05-22T22:33:53.844Z,99818.95
2019-05-22T22:36:22.094Z,99816.95
2019-05-22T22:38:51.304Z,99812.31
2019-05-22T22:41:19.529Z,99816.97
2019-05-22T22:43:48.417Z,99816.97
2019-05-22T22:46:42.587Z,99820.60
2019-05-22T22:49:15.623Z,99820.60
2019-05-22T22:51:45.336Z,99820.61
2019-05-22T22:54:13.957Z,99822.59
2019-05-22T22:56:43.297Z,99822.59
2019-05-22T22:59:12.034Z,99833.90
2019-05-22T23:01:42.611Z,99840.87
2019-05-22T23:04:12.031Z,99843.53
2019-05-22T23:06:40.938Z,99845.66
2019-05-22T23:09:10.756Z,99845.18
2019-05-22T23:11:39.919Z,99842.69
2019-05-22T23:14:08.362Z,99849.66
2019-05-22T23:16:37.003Z,99849.66
2019-05-22T23:19:37.736Z,99851.50
2019-05-22T23:22:05.663Z,99851.50
2019-05-22T23:24:37.378Z,99864.78
2019-05-22T23:27:06.211Z,99864.78
2019-05-22T23:29:35.639Z,99855.16
2019-05-22T23:32:06.441Z,99861.46
2019-05-22T23:34:34.604Z,99862.13
2019-05-22T23:37:03.244Z,99862.13
2019-05-22T23:39:32.815Z,99855.82
2019-05-22T23:42:09.688Z,99855.82
2019-05-22T23:44:39.333Z,99856.16
2019-05-22T23:47:08.500Z,99854.50
2019-05-22T23:49:39.081Z,99854.50
2019-05-22T23:52:08.065Z,99858.30
2019-05-22T23:54:36.830Z,99852.19
2019-05-22T23:57:05.051Z,99861.80
2019-05-22T23:59:35.621Z,99861.80
